createdAt,value
2019-02-23T00:01:03.091Z,6.40
2019-02-23T00:03:32.464Z,6.00
2019-02-23T00:06:01.610Z,6.37
2019-02-23T00:08:30.748Z,6.20
2019-02-23T00:11:00.138Z,5.77
2019-02-23T00:13:29.296Z,6.20
2019-02-23T00:15:58.519Z,6.57
2019-02-23T00:18:27.788Z,6.37
2019-02-23T00:20:56.987Z,6.13
2019-02-23T00:23:26.139Z,7.00
2019-02-23T00:25:55.284Z,5.97
2019-02-23T00:28:24.455Z,5.93
2019-02-23T00:30:53.658Z,5.87
2019-02-23T00:33:23.096Z,6.20
2019-02-23T00:35:52.228Z,6.30
2019-02-23T00:38:21.391Z,6.47
2019-02-23T00:40:50.524Z,6.20
2019-02-23T00:43:19.717Z,6.10
2019-02-23T00:45:48.854Z,5.50
2019-02-23T00:48:18.086Z,6.07
2019-02-23T00:50:47.232Z,5.73
2019-02-23T00:53:16.394Z,5.33
2019-02-23T00:55:45.500Z,5.70
2019-02-23T00:58:14.621Z,5.63
2019-02-23T01:00:43.886Z,6.03
2019-02-23T01:03:13.052Z,6.17
2019-02-23T01:05:42.207Z,5.73
2019-02-23T01:08:11.495Z,5.87
2019-02-23T01:10:40.644Z,5.90
2019-02-23T01:13:09.835Z,6.20
2019-02-23T01:15:39.092Z,6.10
2019-02-23T01:18:08.354Z,5.97
2019-02-23T01:20:37.651Z,6.40
2019-02-23T01:23:06.810Z,6.27
2019-02-23T01:25:35.960Z,6.17
2019-02-23T01:28:05.216Z,5.53
2019-02-23T01:30:34.401Z,6.10
2019-02-23T01:33:03.554Z,6.80
2019-02-23T01:35:32.696Z,5.83
2019-02-23T01:38:02.019Z,5.80
2019-02-23T01:40:31.171Z,6.67
2019-02-23T01:43:00.303Z,6.50
2019-02-23T01:45:29.760Z,7.03
2019-02-23T01:47:58.897Z,6.50
2019-02-23T01:50:28.156Z,6.63
2019-02-23T01:52:57.406Z,7.03
2019-02-23T01:55:26.554Z,6.90
2019-02-23T01:57:55.750Z,7.17
2019-02-23T02:00:25.500Z,7.23
2019-02-23T02:02:55.014Z,7.50
2019-02-23T02:05:24.169Z,7.53
2019-02-23T02:07:53.808Z,7.77
2019-02-23T02:10:23.229Z,7.40
2019-02-23T02:12:52.396Z,7.33
2019-02-23T02:15:21.853Z,7.10
2019-02-23T02:17:51.001Z,8.17
2019-02-23T02:20:20.207Z,7.33
2019-02-23T02:22:49.456Z,7.37
2019-02-23T02:25:18.705Z,7.20
2019-02-23T02:27:47.856Z,7.40
2019-02-23T02:30:17.082Z,7.13
2019-02-23T02:32:46.253Z,7.50
2019-02-23T02:35:15.369Z,7.33
2019-02-23T02:37:44.753Z,8.07
2019-02-23T02:40:14.544Z,8.00
2019-02-23T02:42:43.773Z,7.93
2019-02-23T02:45:13.295Z,7.73
2019-02-23T02:47:42.466Z,8.10
2019-02-23T02:50:23.350Z,7.67
2019-02-23T02:52:42.704Z,8.67
2019-02-23T02:55:11.962Z,8.43
2019-02-23T02:57:41.123Z,8.63
2019-02-23T03:00:12.113Z,8.07
2019-02-23T03:02:41.273Z,8.13
2019-02-23T03:05:10.464Z,9.03
2019-02-23T03:07:39.758Z,8.50
2019-02-23T03:10:09.154Z,9.03
2019-02-23T03:12:38.334Z,8.33
2019-02-23T03:15:08.105Z,8.83
2019-02-23T03:17:37.243Z,8.50
2019-02-23T03:20:07.984Z,8.37
2019-02-23T03:22:37.173Z,8.97
2019-02-23T03:25:06.741Z,9.63
2019-02-23T03:27:35.895Z,8.80
2019-02-23T03:30:05.727Z,8.83
2019-02-23T03:32:34.929Z,10.13
2019-02-23T03:35:04.235Z,9.17
2019-02-23T03:37:33.408Z,9.87
2019-02-23T03:40:02.559Z,9.30
2019-02-23T03:42:31.934Z,9.90
2019-02-23T03:45:01.088Z,9.30
2019-02-23T03:47:30.247Z,9.37
2019-02-23T03:49:59.401Z,9.70
2019-02-23T03:52:28.575Z,9.10
2019-02-23T03:54:57.729Z,10.10
2019-02-23T03:57:26.859Z,9.20
2019-02-23T03:59:56.156Z,10.10
2019-02-23T04:02:25.369Z,10.43
2019-02-23T04:04:54.527Z,9.87
2019-02-23T04:07:23.688Z,9.77
2019-02-23T04:09:53.053Z,9.27
2019-02-23T04:12:22.226Z,9.63
2019-02-23T04:14:51.482Z,9.00
2019-02-23T04:17:20.686Z,9.17
2019-02-23T04:19:49.883Z,9.37
2019-02-23T04:22:19.077Z,9.90
2019-02-23T04:24:48.416Z,10.07
2019-02-23T04:27:17.663Z,10.47
2019-02-23T04:29:47.145Z,9.90
2019-02-23T04:32:16.480Z,10.00
2019-02-23T04:34:45.634Z,9.83
2019-02-23T04:37:15.070Z,10.60
2019-02-23T04:39:44.293Z,10.23
2019-02-23T04:42:13.484Z,11.13
2019-02-23T04:44:42.745Z,10.60
2019-02-23T04:47:11.940Z,10.60
2019-02-23T04:49:41.081Z,11.20
2019-02-23T04:52:10.445Z,10.50
2019-02-23T04:54:40.034Z,10.60
2019-02-23T04:57:09.216Z,10.40
2019-02-23T04:59:38.369Z,10.43
2019-02-23T05:02:07.511Z,10.90
2019-02-23T05:04:36.695Z,11.17
2019-02-23T05:07:05.853Z,11.13
2019-02-23T05:09:35.209Z,11.80
2019-02-23T05:12:04.389Z,10.47
2019-02-23T05:14:33.542Z,10.53
2019-02-23T05:17:03.014Z,10.63
2019-02-23T05:19:32.160Z,11.33
2019-02-23T05:22:01.352Z,10.60
2019-02-23T05:24:30.601Z,10.73
2019-02-23T05:26:59.864Z,10.23
2019-02-23T05:29:29.017Z,10.37
2019-02-23T05:31:58.272Z,10.70
2019-02-23T05:34:27.859Z,10.37
2019-02-23T05:36:57.299Z,11.07
2019-02-23T05:39:26.468Z,11.03
2019-02-23T05:41:55.625Z,11.33
2019-02-23T05:44:24.873Z,10.03
2019-02-23T05:46:54.155Z,11.13
2019-02-23T05:49:23.413Z,10.67
2019-02-23T05:51:52.641Z,11.40
2019-02-23T05:54:21.878Z,10.23
2019-02-23T05:56:51.030Z,11.00
2019-02-23T05:59:20.436Z,10.93
2019-02-23T06:01:49.676Z,10.37
2019-02-23T06:04:18.842Z,10.90
2019-02-23T06:06:48.036Z,11.37
2019-02-23T06:09:17.204Z,10.67
2019-02-23T06:11:46.349Z,10.90
2019-02-23T06:14:15.594Z,11.20
2019-02-23T06:16:44.730Z,11.13
2019-02-23T06:19:13.924Z,11.27
2019-02-23T06:21:52.889Z,11.87
2019-02-23T06:24:14.323Z,10.57
2019-02-23T06:26:43.466Z,11.33
2019-02-23T06:29:12.881Z,11.27
2019-02-23T06:31:42.010Z,11.33
2019-02-23T06:34:16.309Z,10.50
2019-02-23T06:36:42.123Z,11.20
2019-02-23T06:39:11.283Z,10.73
2019-02-23T06:41:40.427Z,10.87
2019-02-23T06:44:09.576Z,11.57
2019-02-23T06:46:38.732Z,12.10
2019-02-23T06:49:07.873Z,11.97
2019-02-23T06:51:37.133Z,11.50
2019-02-23T06:54:06.333Z,11.53
2019-02-23T06:56:35.497Z,11.87
2019-02-23T06:59:04.854Z,10.87
2019-02-23T07:01:34.054Z,11.97
2019-02-23T07:04:03.198Z,11.70
2019-02-23T07:06:32.353Z,12.03
2019-02-23T07:09:01.500Z,11.73
2019-02-23T07:11:30.671Z,11.30
2019-02-23T07:13:59.830Z,13.13
2019-02-23T07:16:29.006Z,15.37
2019-02-23T07:18:58.152Z,12.73
2019-02-23T07:21:28.101Z,11.83
2019-02-23T07:23:57.279Z,12.13
2019-02-23T07:26:26.547Z,13.17
2019-02-23T07:28:55.684Z,12.10
2019-02-23T07:31:24.871Z,11.87
2019-02-23T07:33:54.009Z,10.60
2019-02-23T07:36:25.491Z,12.23
2019-02-23T07:38:54.796Z,12.30
2019-02-23T07:41:24.144Z,16.20
2019-02-23T07:43:53.365Z,23.23
2019-02-23T07:46:22.645Z,13.30
2019-02-23T07:48:51.811Z,13.13
2019-02-23T07:51:21.024Z,11.93
2019-02-23T07:53:50.199Z,12.83
2019-02-23T07:56:19.388Z,11.77
2019-02-23T07:58:48.606Z,12.10
2019-02-23T08:01:17.736Z,11.30
2019-02-23T08:03:47.091Z,11.60
2019-02-23T08:06:16.357Z,11.20
2019-02-23T08:08:45.892Z,11.47
2019-02-23T08:11:15.040Z,11.47
2019-02-23T08:13:44.224Z,10.57
2019-02-23T08:16:13.405Z,28.20
2019-02-23T08:18:42.779Z,12.10
2019-02-23T08:21:12.004Z,10.77
2019-02-23T08:23:41.176Z,11.50
2019-02-23T08:26:10.321Z,10.53
2019-02-23T08:28:39.570Z,10.97
2019-02-23T08:31:08.760Z,12.03
2019-02-23T08:33:38.052Z,10.60
2019-02-23T08:36:07.259Z,10.73
2019-02-23T08:38:36.440Z,10.73
2019-02-23T08:41:05.600Z,11.23
2019-02-23T08:43:34.959Z,10.53
2019-02-23T08:46:04.237Z,10.90
2019-02-23T08:48:33.629Z,9.90
2019-02-23T08:51:02.920Z,10.27
2019-02-23T08:53:32.096Z,10.53
2019-02-23T08:56:01.260Z,11.07
2019-02-23T08:58:30.452Z,10.57
2019-02-23T09:00:59.713Z,11.37
2019-02-23T09:03:29.053Z,10.60
2019-02-23T09:05:58.240Z,10.87
2019-02-23T09:08:27.406Z,11.30
2019-02-23T09:10:56.779Z,12.50
2019-02-23T09:13:26.308Z,11.23
2019-02-23T09:15:55.894Z,9.47
2019-02-23T09:18:25.501Z,10.03
2019-02-23T09:20:54.791Z,9.47
2019-02-23T09:23:24.000Z,9.47
2019-02-23T09:25:53.268Z,8.87
2019-02-23T09:28:22.713Z,9.60
2019-02-23T09:30:51.956Z,9.10
2019-02-23T09:33:21.181Z,9.07
2019-02-23T09:35:50.370Z,8.20
2019-02-23T09:38:19.569Z,7.63
2019-02-23T09:40:49.700Z,8.23
2019-02-23T09:43:18.882Z,8.00
2019-02-23T09:45:48.157Z,8.27
2019-02-23T09:48:17.315Z,7.40
2019-02-23T09:50:46.457Z,7.33
2019-02-23T09:53:15.633Z,7.03
2019-02-23T09:55:44.788Z,9.60
2019-02-23T09:58:14.124Z,8.67
2019-02-23T10:00:43.670Z,7.43
2019-02-23T10:03:13.296Z,7.07
2019-02-23T10:05:42.491Z,6.90
2019-02-23T10:08:11.708Z,6.67
2019-02-23T10:10:40.921Z,6.87
2019-02-23T10:13:10.509Z,6.97
2019-02-23T10:15:39.896Z,6.97
2019-02-23T10:18:09.527Z,6.83
2019-02-23T10:20:38.693Z,6.53
2019-02-23T10:23:07.924Z,6.73
2019-02-23T10:25:37.173Z,6.63
2019-02-23T10:28:06.447Z,6.53
2019-02-23T10:30:35.636Z,5.93
2019-02-23T10:33:04.796Z,6.20
2019-02-23T10:35:33.949Z,6.13
2019-02-23T10:38:03.115Z,5.90
2019-02-23T10:40:32.500Z,5.87
2019-02-23T10:43:01.939Z,6.08
2019-02-23T10:45:31.115Z,6.12
2019-02-23T10:48:00.254Z,6.40
2019-02-23T10:50:29.575Z,41.75
2019-02-23T10:52:58.729Z,5.83
2019-02-23T10:55:27.915Z,5.33
2019-02-23T10:57:57.047Z,4.90
2019-02-23T11:00:26.318Z,4.67
2019-02-23T11:02:55.549Z,5.00
2019-02-23T11:05:24.696Z,4.80
2019-02-23T11:07:54.020Z,4.92
2019-02-23T11:10:23.374Z,4.55
2019-02-23T11:12:52.500Z,4.00
2019-02-23T11:15:22.164Z,4.28
2019-02-23T11:17:51.499Z,5.08
2019-02-23T11:20:21.444Z,4.47
2019-02-23T11:22:50.657Z,4.50
2019-02-23T11:25:19.865Z,5.80
2019-02-23T11:27:49.021Z,6.58
2019-02-23T11:30:18.400Z,5.15
2019-02-23T11:32:47.641Z,4.12
2019-02-23T11:35:17.658Z,3.72
2019-02-23T11:37:47.213Z,4.00
2019-02-23T11:40:16.392Z,3.55
2019-02-23T11:42:45.637Z,3.77
2019-02-23T11:45:14.845Z,3.22
2019-02-23T11:47:44.025Z,3.35
2019-02-23T11:50:13.620Z,3.60
2019-02-23T11:52:42.813Z,3.58
2019-02-23T11:55:12.032Z,8.43
2019-02-23T11:57:41.501Z,8.38
2019-02-23T12:00:11.081Z,3.17
2019-02-23T12:02:40.319Z,3.60
2019-02-23T12:05:09.878Z,3.20
2019-02-23T12:07:39.017Z,2.92
2019-02-23T12:10:10.401Z,2.70
2019-02-23T12:12:39.810Z,3.30
2019-02-23T12:15:09.297Z,11.30
2019-02-23T12:17:38.547Z,3.00
2019-02-23T12:20:08.144Z,2.60
2019-02-23T12:22:37.328Z,3.08
2019-02-23T12:25:06.484Z,2.90
2019-02-23T12:27:35.640Z,2.40
2019-02-23T12:30:05.059Z,2.98
2019-02-23T12:32:34.209Z,2.50
2019-02-23T12:35:03.371Z,2.70
2019-02-23T12:37:32.541Z,2.17
2019-02-23T12:40:01.702Z,2.30
2019-02-23T12:42:30.851Z,2.33
2019-02-23T12:44:59.997Z,2.65
2019-02-23T12:47:29.224Z,2.87
2019-02-23T12:49:58.401Z,2.55
2019-02-23T12:52:27.565Z,2.60
2019-02-23T12:54:56.774Z,2.37
2019-02-23T12:57:26.008Z,2.58
2019-02-23T12:59:55.892Z,2.72
2019-02-23T13:02:25.176Z,2.92
2019-02-23T13:04:54.351Z,2.58
2019-02-23T13:07:23.511Z,2.65
2019-02-23T13:09:54.977Z,2.40
2019-02-23T13:12:51.408Z,2.25
2019-02-23T13:15:30.294Z,2.90
2019-02-23T13:18:36.420Z,2.40
2019-02-23T13:21:19.498Z,2.77
2019-02-23T13:24:27.847Z,2.47
2019-02-23T13:27:31.009Z,2.60
2019-02-23T13:30:17.736Z,3.08
2019-02-23T13:33:40.254Z,2.35
2019-02-23T13:36:51.501Z,2.52
2019-02-23T13:39:44.169Z,2.30
2019-02-23T13:42:45.201Z,2.60
2019-02-23T13:45:54.564Z,2.30
2019-02-23T13:48:59.811Z,2.50
2019-02-23T13:52:15.962Z,2.08
2019-02-23T13:55:44.074Z,2.30
2019-02-23T13:58:50.066Z,3.90
2019-02-23T14:01:59.293Z,4.65
2019-02-23T14:05:11.947Z,5.20
2019-02-23T14:08:17.809Z,3.25
2019-02-23T14:11:07.229Z,2.73
2019-02-23T14:14:11.958Z,2.33
2019-02-23T14:17:06.324Z,2.20
2019-02-23T14:20:04.508Z,2.37
2019-02-23T14:23:25.757Z,3.00
2019-02-23T14:26:25.914Z,2.80
2019-02-23T14:29:23.669Z,4.53
2019-02-23T14:32:24.358Z,2.30
2019-02-23T14:35:49.843Z,2.80
2019-02-23T14:39:16.732Z,2.60
2019-02-23T14:42:04.953Z,2.63
2019-02-23T14:44:54.293Z,8.30
2019-02-23T14:47:49.912Z,3.13
2019-02-23T14:50:53.543Z,2.20
2019-02-23T14:54:09.578Z,2.23
2019-02-23T14:57:14.837Z,2.60
2019-02-23T15:00:16.580Z,2.03
2019-02-23T15:03:38.085Z,2.30
2019-02-23T15:06:16.219Z,2.50
2019-02-23T15:09:17.941Z,2.33
2019-02-23T15:12:11.429Z,2.60
2019-02-23T15:15:23.805Z,2.00
2019-02-23T15:18:39.288Z,2.23
2019-02-23T15:21:34.147Z,3.07
2019-02-23T15:24:29.228Z,2.87
2019-02-23T15:27:53.101Z,2.40
2019-02-23T15:31:04.666Z,2.47
2019-02-23T15:34:21.157Z,4.13
2019-02-23T15:37:07.633Z,2.57
2019-02-23T15:40:23.819Z,1.80
2019-02-23T15:43:43.210Z,1.80
2019-02-23T15:46:49.275Z,2.10
2019-02-23T15:49:31.028Z,2.13
2019-02-23T15:52:02.005Z,3.17
2019-02-23T15:54:31.421Z,1.97
2019-02-23T15:57:00.605Z,2.67
2019-02-23T15:59:29.844Z,1.87
2019-02-23T16:01:59.037Z,2.10
2019-02-23T16:04:28.430Z,2.20
2019-02-23T16:06:58.018Z,2.23
2019-02-23T16:09:27.245Z,4.13
2019-02-23T16:11:56.455Z,4.20
2019-02-23T16:14:27.394Z,3.07
2019-02-23T16:16:56.583Z,3.00
2019-02-23T16:19:25.856Z,3.37
2019-02-23T16:21:55.036Z,2.97
2019-02-23T16:24:24.264Z,3.03
2019-02-23T16:26:53.460Z,3.00
2019-02-23T16:29:22.620Z,2.60
2019-02-23T16:31:51.900Z,2.73
2019-02-23T16:34:21.037Z,2.53
2019-02-23T16:36:50.268Z,24.87
2019-02-23T16:39:19.517Z,6.13
2019-02-23T16:41:48.926Z,13.87
2019-02-23T16:44:18.404Z,16.63
2019-02-23T16:46:47.603Z,16.07
2019-02-23T16:49:16.770Z,8.77
2019-02-23T16:51:45.912Z,5.87
2019-02-23T16:54:15.404Z,3.67
2019-02-23T16:56:44.965Z,4.43
2019-02-23T16:59:14.244Z,3.40
2019-02-23T17:01:43.458Z,3.23
2019-02-23T17:04:12.942Z,3.23
2019-02-23T17:06:42.310Z,3.07
2019-02-23T17:09:11.590Z,2.80
2019-02-23T17:11:40.824Z,3.00
2019-02-23T17:14:10.110Z,4.13
2019-02-23T17:16:39.246Z,10.97
2019-02-23T17:19:08.491Z,9.63
2019-02-23T17:21:37.669Z,3.70
2019-02-23T17:24:07.007Z,5.20
2019-02-23T17:26:36.928Z,3.77
2019-02-23T17:29:06.305Z,4.10
2019-02-23T17:31:35.532Z,5.17
2019-02-23T17:34:04.728Z,4.20
2019-02-23T17:36:33.936Z,3.70
2019-02-23T17:39:03.199Z,3.23
2019-02-23T17:41:32.444Z,5.53
2019-02-23T17:44:01.727Z,12.30
2019-02-23T17:46:30.888Z,5.17
2019-02-23T17:49:00.458Z,4.53
2019-02-23T17:51:29.612Z,3.00
2019-02-23T17:53:58.757Z,2.90
2019-02-23T17:56:28.012Z,4.57
2019-02-23T17:58:57.280Z,3.27
2019-02-23T18:01:26.605Z,3.00
2019-02-23T18:03:55.763Z,2.80
2019-02-23T18:06:25.420Z,2.50
2019-02-23T18:08:54.749Z,2.67
2019-02-23T18:11:24.134Z,2.47
2019-02-23T18:13:53.348Z,2.50
2019-02-23T18:16:22.626Z,2.70
2019-02-23T18:18:51.908Z,2.97
2019-02-23T18:21:21.748Z,3.73
2019-02-23T18:23:50.904Z,3.00
2019-02-23T18:26:21.295Z,3.80
2019-02-23T18:28:50.792Z,3.93
2019-02-23T18:31:20.313Z,3.70
2019-02-23T18:33:49.568Z,3.40
2019-02-23T18:36:18.980Z,4.50
2019-02-23T18:38:48.233Z,5.30
2019-02-23T18:41:17.600Z,16.43
2019-02-23T18:43:47.073Z,10.17
2019-02-23T18:46:16.296Z,4.57
2019-02-23T18:48:45.572Z,3.77
2019-02-23T18:51:14.729Z,3.07
2019-02-23T18:53:44.041Z,2.57
2019-02-23T18:56:13.344Z,3.43
2019-02-23T18:58:42.539Z,3.17
2019-02-23T19:01:11.909Z,3.10
2019-02-23T19:03:41.273Z,3.10
2019-02-23T19:06:10.447Z,2.97
2019-02-23T19:08:39.741Z,2.20
2019-02-23T19:11:09.039Z,2.70
2019-02-23T19:13:38.240Z,2.97
2019-02-23T19:16:07.386Z,3.10
2019-02-23T19:18:36.628Z,21.80
2019-02-23T19:21:05.947Z,4.27
2019-02-23T19:23:35.216Z,3.77
2019-02-23T19:26:04.556Z,3.07
2019-02-23T19:28:33.845Z,3.03
2019-02-23T19:31:03.113Z,3.20
2019-02-23T19:33:32.285Z,4.13
2019-02-23T19:36:01.583Z,5.33
2019-02-23T19:38:30.732Z,4.30
2019-02-23T19:41:00.001Z,4.00
2019-02-23T19:43:29.229Z,15.23
2019-02-23T19:45:58.488Z,6.90
2019-02-23T19:48:27.783Z,4.47
2019-02-23T19:51:00.960Z,3.27
2019-02-23T19:53:30.674Z,3.43
2019-02-23T19:55:59.816Z,3.00
2019-02-23T19:58:29.187Z,3.40
2019-02-23T20:00:58.338Z,3.00
2019-02-23T20:03:27.616Z,2.70
2019-02-23T20:05:56.765Z,2.90
2019-02-23T20:08:26.558Z,3.70
2019-02-23T20:10:55.766Z,3.20
2019-02-23T20:13:25.076Z,3.07
2019-02-23T20:15:54.327Z,3.00
2019-02-23T20:18:23.586Z,2.80
2019-02-23T20:20:52.852Z,2.73
2019-02-23T20:23:22.109Z,3.40
2019-02-23T20:25:51.274Z,2.80
2019-02-23T20:28:20.425Z,3.00
2019-02-23T20:30:49.604Z,3.10
2019-02-23T20:33:19.116Z,2.60
2019-02-23T20:35:48.590Z,2.43
2019-02-23T20:38:17.807Z,2.90
2019-02-23T20:40:47.032Z,2.87
2019-02-23T20:43:16.263Z,2.90
2019-02-23T20:45:45.500Z,3.90
2019-02-23T20:48:14.803Z,11.40
2019-02-23T20:50:44.108Z,6.67
2019-02-23T20:53:13.416Z,4.57
2019-02-23T20:55:42.706Z,3.20
2019-02-23T20:58:12.046Z,3.13
2019-02-23T21:00:41.348Z,3.00
2019-02-23T21:03:10.745Z,2.90
2019-02-23T21:05:39.898Z,3.47
2019-02-23T21:08:09.124Z,3.13
2019-02-23T21:10:38.429Z,3.17
2019-02-23T21:13:07.672Z,3.80
2019-02-23T21:15:36.934Z,3.17
2019-02-23T21:18:06.099Z,3.57
2019-02-23T21:20:35.310Z,3.07
2019-02-23T21:23:04.455Z,3.57
2019-02-23T21:25:33.826Z,3.27
2019-02-23T21:28:03.179Z,3.13
2019-02-23T21:30:32.424Z,3.17
2019-02-23T21:33:01.602Z,2.80
2019-02-23T21:35:30.919Z,3.10
2019-02-23T21:38:00.123Z,4.03
2019-02-23T21:40:29.312Z,4.40
2019-02-23T21:42:58.578Z,6.67
2019-02-23T21:45:27.840Z,7.97
2019-02-23T21:47:57.209Z,17.53
2019-02-23T21:50:45.574Z,6.20
2019-02-23T21:53:14.752Z,3.90
2019-02-23T21:55:44.088Z,3.47
2019-02-23T21:58:13.317Z,2.77
2019-02-23T22:00:42.525Z,3.27
2019-02-23T22:03:11.749Z,3.10
2019-02-23T22:05:40.884Z,3.13
2019-02-23T22:08:10.043Z,2.13
2019-02-23T22:10:39.253Z,2.37
2019-02-23T22:13:08.481Z,2.20
2019-02-23T22:15:37.704Z,1.93
2019-02-23T22:18:06.893Z,2.13
2019-02-23T22:20:36.222Z,1.70
2019-02-23T22:23:05.408Z,1.80
2019-02-23T22:25:34.671Z,2.20
2019-02-23T22:28:03.865Z,2.00
2019-02-23T22:30:33.086Z,2.00
2019-02-23T22:33:02.481Z,4.13
2019-02-23T22:35:31.649Z,7.37
2019-02-23T22:38:01.017Z,2.10
2019-02-23T22:40:30.152Z,1.90
2019-02-23T22:42:59.437Z,2.00
2019-02-23T22:45:28.693Z,1.80
2019-02-23T22:47:57.857Z,2.40
2019-02-23T22:50:27.113Z,1.90
2019-02-23T22:52:56.267Z,1.83
2019-02-23T22:55:25.678Z,1.90
2019-02-23T22:57:55.017Z,1.63
2019-02-23T23:00:28.151Z,2.10
2019-02-23T23:02:57.416Z,2.10
2019-02-23T23:05:26.613Z,1.60
2019-02-23T23:07:55.770Z,1.73
2019-02-23T23:10:25.176Z,1.87
2019-02-23T23:12:54.807Z,2.40
2019-02-23T23:15:24.226Z,1.73
2019-02-23T23:17:53.360Z,1.80
2019-02-23T23:20:22.669Z,1.60
2019-02-23T23:22:51.849Z,1.80
2019-02-23T23:25:21.055Z,1.63
2019-02-23T23:27:50.263Z,1.67
2019-02-23T23:30:19.593Z,1.60
2019-02-23T23:32:48.786Z,1.70
2019-02-23T23:35:18.068Z,1.83
2019-02-23T23:37:47.214Z,2.10
2019-02-23T23:40:16.368Z,2.20
2019-02-23T23:42:45.500Z,1.80
2019-02-23T23:45:14.729Z,2.10
2019-02-23T23:47:43.886Z,2.00
2019-02-23T23:50:13.051Z,2.10
2019-02-23T23:52:42.288Z,2.07
2019-02-23T23:55:11.658Z,2.07
2019-02-23T23:57:40.900Z,2.30
